Date,TemperatureHighF,TemperatureAvgF,TemperatureLowF,DewpointHighF,DewpointAvgF,DewpointLowF,HumidityHigh,HumidityAvg,HumidityLow,PressureMaxIn,PressureMinIn,WindSpeedMaxMPH,WindSpeedAvgMPH,GustSpeedMaxMPH,PrecipitationSumIn
2012-12-1,51.8,41.8,31.3,29.0,25.8,22.0,69,54,41,30.04,29.93,14,3,17,0.00
2012-12-2,53.1,39.1,28.5,29.0,21.5,15.0,73,53,24,30.07,29.83,34,7,36,0.00
2012-12-3,43.1,35.1,24.9,32.0,24.5,14.0,93,68,36,30.32,29.84,18,2,24,0.06
2012-12-4,39.7,28.6,19.3,21.0,16.7,14.0,82,63,36,30.56,30.32,4,0,10,0.00
2012-12-5,49.2,36.3,25.4,28.0,22.2,15.0,73,58,38,30.49,30.07,14,1,24,0.00
2012-12-6,41.9,35.4,30.6,33.0,29.0,26.0,92,78,65,30.07,29.89,5,0,9,0.01
2012-12-7,37.5,31.7,28.4,28.0,25.5,18.0,92,78,62,29.98,29.91,11,2,17,0.01
2012-12-8,35.5,27.3,16.3,22.0,18.2,14.0,92,70,42,29.98,29.79,28,6,33,0.00
2012-12-9,15.8,9.3,-0.4,13.0,4.5,-6.0,90,81,70,30.59,29.98,16,3,20,0.01
2012-12-10,14.0,8.2,-0.1,10.0,4.1,-6.0,88,83,76,30.61,30.46,9,0,10,0.00
2012-12-11,24.7,15.6,9.6,20.0,12.1,7.0,92,86,78,30.48,30.32,5,0,6,0.10
2012-12-12,39.0,25.2,9.9,20.0,13.5,6.0,87,64,43,30.32,30.14,14,3,19,0.05
2012-12-13,44.5,33.6,25.4,20.0,14.8,11.0,59,47,34,30.14,29.91,11,2,16,0.02
2012-12-14,35.3,27.8,22.8,26.0,18.1,11.0,94,68,52,29.91,29.56,12,2,17,0.00
2012-12-15,30.9,25.5,21.4,26.0,22.9,19.0,94,89,74,29.88,29.83,13,1,16,0.10
2012-12-16,22.4,20.6,17.7,21.0,18.7,16.0,93,92,91,30.14,29.87,10,1,14,0.00
2012-12-17,25.9,21.9,18.5,24.0,19.9,17.0,92,92,88,30.14,29.96,10,1,20,0.00
2012-12-18,30.9,27.5,24.0,25.0,22.7,21.0,93,82,70,29.96,29.57,23,10,35,0.00
2012-12-19,26.0,11.5,-3.3,24.0,7.7,-9.0,93,85,72,30.69,29.50,22,5,26,0.00
2012-12-20,19.8,4.3,-8.4,8.0,-2.7,-13.0,80,73,57,31.05,30.71,0,0,0,0.01
2012-12-21,31.1,16.2,4.8,17.0,8.5,0.0,84,72,54,30.95,30.55,3,0,4,0.05
2012-12-22,32.0,20.1,10.5,16.0,10.1,5.0,82,66,49,30.55,30.30,7,0,10,0.02
2012-12-23,33.9,27.0,20.1,21.0,14.5,5.0,75,60,39,30.30,30.08,12,2,16,0.01
2012-12-24,29.2,25.9,21.5,25.0,21.0,15.0,100,82,60,30.08,29.74,8,1,12,0.02
2012-12-25,25.5,15.7,6.2,19.0,9.4,2.0,91,77,58,30.29,29.86,7,1,10,0.03
2012-12-26,30.3,16.5,6.2,17.0,10.7,2.0,90,78,56,30.29,29.92,13,2,22,0.00
2012-12-27,23.5,18.0,12.6,18.0,14.6,8.0,91,86,75,30.10,29.86,9,3,13,0.03
2012-12-28,20.4,10.5,1.0,10.0,4.8,-4.0,92,78,63,30.63,30.09,7,1,11,0.01
2012-12-29,16.0,6.6,-2.4,4.0,-0.6,-7.0,85,73,57,30.71,30.50,9,0,11,0.00
2012-12-30,22.5,14.4,5.2,15.0,6.9,0.0,83,73,58,30.50,30.14,5,0,9,0.00
2012-12-31,19.7,14.8,8.5,15.0,11.0,5.0,90,85,75,30.32,30.06,9,2,13,0.00